sensor_id;sensor_type;location;lat;lon;timestamp;P1;durP1;ratioP1;P2;durP2;ratioP2
6665;SDS011;3369;49.906;8.598;2022-12-16T00:01:19;21.33;;;12.80;;
6665;SDS011;3369;49.906;8.598;2022-12-16T00:03:53;18.63;;;11.60;;
6665;SDS011;3369;49.906;8.598;2022-12-16T00:06:22;22.63;;;11.50;;
6665;SDS011;3369;49.906;8.598;2022-12-16T00:08:49;22.00;;;12.07;;
6665;SDS011;3369;49.906;8.598;2022-12-16T00:11:16;21.47;;;13.07;;
6665;SDS011;3369;49.906;8.598;2022-12-16T00:13:42;21.70;;;11.43;;
6665;SDS011;3369;49.906;8.598;2022-12-16T00:16:09;22.70;;;13.10;;
6665;SDS011;3369;49.906;8.598;2022-12-16T00:18:37;21.23;;;11.10;;
6665;SDS011;3369;49.906;8.598;2022-12-16T00:21:03;23.27;;;12.37;;
6665;SDS011;3369;49.906;8.598;2022-12-16T00:23:30;18.17;;;11.17;;
6665;SDS011;3369;49.906;8.598;2022-12-16T00:25:56;20.90;;;10.47;;
6665;SDS011;3369;49.906;8.598;2022-12-16T00:28:22;19.50;;;11.33;;
6665;SDS011;3369;49.906;8.598;2022-12-16T00:30:49;20.30;;;11.10;;
6665;SDS011;3369;49.906;8.598;2022-12-16T00:33:16;19.27;;;12.00;;
6665;SDS011;3369;49.906;8.598;2022-12-16T00:35:42;19.57;;;10.23;;
6665;SDS011;3369;49.906;8.598;2022-12-16T00:38:08;19.43;;;11.60;;
6665;SDS011;3369;49.906;8.598;2022-12-16T00:40:34;19.93;;;10.93;;
6665;SDS011;3369;49.906;8.598;2022-12-16T00:42:59;17.70;;;10.57;;
6665;SDS011;3369;49.906;8.598;2022-12-16T00:45:25;18.23;;;11.40;;
6665;SDS011;3369;49.906;8.598;2022-12-16T00:47:51;21.23;;;10.67;;
6665;SDS011;3369;49.906;8.598;2022-12-16T00:50:17;15.97;;;9.77;;
6665;SDS011;3369;49.906;8.598;2022-12-16T00:52:44;16.07;;;9.17;;
6665;SDS011;3369;49.906;8.598;2022-12-16T00:55:10;17.70;;;9.70;;
6665;SDS011;3369;49.906;8.598;2022-12-16T00:57:36;16.70;;;10.27;;
6665;SDS011;3369;49.906;8.598;2022-12-16T01:00:02;14.37;;;9.03;;
6665;SDS011;3369;49.906;8.598;2022-12-16T01:02:29;18.60;;;10.47;;
6665;SDS011;3369;49.906;8.598;2022-12-16T01:04:55;16.00;;;9.43;;
6665;SDS011;3369;49.906;8.598;2022-12-16T01:07:21;13.30;;;8.50;;
6665;SDS011;3369;49.906;8.598;2022-12-16T01:09:47;14.37;;;8.87;;
6665;SDS011;3369;49.906;8.598;2022-12-16T01:12:13;17.37;;;9.40;;
6665;SDS011;3369;49.906;8.598;2022-12-16T01:14:38;17.93;;;9.73;;
6665;SDS011;3369;49.906;8.598;2022-12-16T01:17:04;12.90;;;8.90;;
6665;SDS011;3369;49.906;8.598;2022-12-16T01:19:30;14.87;;;9.57;;
6665;SDS011;3369;49.906;8.598;2022-12-16T01:21:55;15.87;;;9.00;;
6665;SDS011;3369;49.906;8.598;2022-12-16T01:24:21;15.03;;;9.03;;
6665;SDS011;3369;49.906;8.598;2022-12-16T01:26:47;15.60;;;9.33;;
6665;SDS011;3369;49.906;8.598;2022-12-16T01:29:13;17.50;;;9.97;;
6665;SDS011;3369;49.906;8.598;2022-12-16T01:31:38;13.03;;;8.73;;
6665;SDS011;3369;49.906;8.598;2022-12-16T01:34:04;13.70;;;8.83;;
6665;SDS011;3369;49.906;8.598;2022-12-16T01:36:30;13.00;;;8.47;;
6665;SDS011;3369;49.906;8.598;2022-12-16T01:38:55;12.63;;;7.70;;
6665;SDS011;3369;49.906;8.598;2022-12-16T01:41:21;15.27;;;8.77;;
6665;SDS011;3369;49.906;8.598;2022-12-16T01:43:47;13.40;;;8.20;;
6665;SDS011;3369;49.906;8.598;2022-12-16T01:48:50;14.33;;;8.57;;
6665;SDS011;3369;49.906;8.598;2022-12-16T01:53:49;13.27;;;8.23;;
6665;SDS011;3369;49.906;8.598;2022-12-16T01:56:19;14.93;;;8.93;;
6665;SDS011;3369;49.906;8.598;2022-12-16T01:58:47;14.77;;;8.33;;
6665;SDS011;3369;49.906;8.598;2022-12-16T02:01:14;12.87;;;8.27;;
6665;SDS011;3369;49.906;8.598;2022-12-16T02:03:40;12.07;;;7.93;;
6665;SDS011;3369;49.906;8.598;2022-12-16T02:06:07;14.37;;;8.43;;
6665;SDS011;3369;49.906;8.598;2022-12-16T02:08:33;16.13;;;9.00;;
6665;SDS011;3369;49.906;8.598;2022-12-16T02:13:36;13.93;;;8.50;;
6665;SDS011;3369;49.906;8.598;2022-12-16T02:40:00;13.83;;;7.67;;
6665;SDS011;3369;49.906;8.598;2022-12-16T02:42:29;11.87;;;7.80;;
6665;SDS011;3369;49.906;8.598;2022-12-16T02:45:17;13.53;;;7.07;;
6665;SDS011;3369;49.906;8.598;2022-12-16T02:47:47;13.93;;;7.87;;
6665;SDS011;3369;49.906;8.598;2022-12-16T02:50:14;15.07;;;8.27;;
6665;SDS011;3369;49.906;8.598;2022-12-16T02:52:41;12.10;;;7.80;;
6665;SDS011;3369;49.906;8.598;2022-12-16T02:55:07;12.53;;;8.23;;
6665;SDS011;3369;49.906;8.598;2022-12-16T02:57:40;14.43;;;8.60;;
6665;SDS011;3369;49.906;8.598;2022-12-16T03:00:23;11.67;;;7.27;;
6665;SDS011;3369;49.906;8.598;2022-12-16T03:03:02;14.00;;;8.27;;
6665;SDS011;3369;49.906;8.598;2022-12-16T03:05:41;11.23;;;6.47;;
6665;SDS011;3369;49.906;8.598;2022-12-16T03:08:13;13.73;;;8.27;;
6665;SDS011;3369;49.906;8.598;2022-12-16T03:10:49;13.13;;;8.20;;
6665;SDS011;3369;49.906;8.598;2022-12-16T03:13:18;11.27;;;7.80;;
6665;SDS011;3369;49.906;8.598;2022-12-16T03:15:45;12.33;;;7.80;;
6665;SDS011;3369;49.906;8.598;2022-12-16T03:18:13;11.43;;;6.90;;
6665;SDS011;3369;49.906;8.598;2022-12-16T03:20:54;12.90;;;8.13;;
6665;SDS011;3369;49.906;8.598;2022-12-16T03:23:30;13.30;;;8.37;;
6665;SDS011;3369;49.906;8.598;2022-12-16T03:26:05;11.80;;;7.47;;
6665;SDS011;3369;49.906;8.598;2022-12-16T03:28:37;13.07;;;8.50;;
6665;SDS011;3369;49.906;8.598;2022-12-16T03:31:39;11.90;;;7.27;;
6665;SDS011;3369;49.906;8.598;2022-12-16T03:37:01;13.50;;;9.63;;
6665;SDS011;3369;49.906;8.598;2022-12-16T03:39:33;13.47;;;8.73;;
6665;SDS011;3369;49.906;8.598;2022-12-16T03:42:05;17.47;;;9.27;;
6665;SDS011;3369;49.906;8.598;2022-12-16T03:44:33;9.87;;;7.13;;
6665;SDS011;3369;49.906;8.598;2022-12-16T03:47:00;14.00;;;8.20;;
6665;SDS011;3369;49.906;8.598;2022-12-16T03:49:26;16.23;;;8.47;;
6665;SDS011;3369;49.906;8.598;2022-12-16T03:51:52;13.20;;;8.40;;
6665;SDS011;3369;49.906;8.598;2022-12-16T03:54:19;11.20;;;7.57;;
6665;SDS011;3369;49.906;8.598;2022-12-16T03:56:45;14.77;;;7.57;;
6665;SDS011;3369;49.906;8.598;2022-12-16T03:59:11;12.80;;;7.37;;
6665;SDS011;3369;49.906;8.598;2022-12-16T04:01:38;13.30;;;7.57;;
6665;SDS011;3369;49.906;8.598;2022-12-16T04:04:04;11.70;;;8.17;;
6665;SDS011;3369;49.906;8.598;2022-12-16T04:06:29;11.00;;;7.63;;
6665;SDS011;3369;49.906;8.598;2022-12-16T04:08:55;13.40;;;7.97;;
6665;SDS011;3369;49.906;8.598;2022-12-16T04:11:20;13.50;;;8.10;;
6665;SDS011;3369;49.906;8.598;2022-12-16T04:14:06;10.73;;;7.93;;
6665;SDS011;3369;49.906;8.598;2022-12-16T04:16:51;13.10;;;7.80;;
6665;SDS011;3369;49.906;8.598;2022-12-16T04:19:36;11.70;;;7.90;;
6665;SDS011;3369;49.906;8.598;2022-12-16T04:22:54;11.43;;;7.60;;
6665;SDS011;3369;49.906;8.598;2022-12-16T04:25:32;10.10;;;7.17;;
6665;SDS011;3369;49.906;8.598;2022-12-16T04:28:00;11.77;;;7.00;;
6665;SDS011;3369;49.906;8.598;2022-12-16T04:30:27;12.53;;;7.40;;
6665;SDS011;3369;49.906;8.598;2022-12-16T04:33:03;13.50;;;7.03;;
6665;SDS011;3369;49.906;8.598;2022-12-16T04:35:50;11.30;;;6.47;;
6665;SDS011;3369;49.906;8.598;2022-12-16T04:38:34;13.03;;;7.30;;
6665;SDS011;3369;49.906;8.598;2022-12-16T04:41:18;16.30;;;8.10;;
6665;SDS011;3369;49.906;8.598;2022-12-16T04:44:02;13.67;;;7.13;;
6665;SDS011;3369;49.906;8.598;2022-12-16T04:46:47;10.73;;;7.70;;
6665;SDS011;3369;49.906;8.598;2022-12-16T04:49:31;11.57;;;7.63;;
6665;SDS011;3369;49.906;8.598;2022-12-16T04:52:15;12.63;;;7.27;;
6665;SDS011;3369;49.906;8.598;2022-12-16T04:54:59;13.40;;;8.40;;
6665;SDS011;3369;49.906;8.598;2022-12-16T04:57:46;14.03;;;8.03;;
6665;SDS011;3369;49.906;8.598;2022-12-16T05:00:35;14.10;;;8.13;;
6665;SDS011;3369;49.906;8.598;2022-12-16T05:03:19;13.40;;;8.73;;
6665;SDS011;3369;49.906;8.598;2022-12-16T05:06:04;14.50;;;8.20;;
6665;SDS011;3369;49.906;8.598;2022-12-16T05:08:48;14.87;;;8.23;;
6665;SDS011;3369;49.906;8.598;2022-12-16T05:11:32;13.13;;;8.83;;
6665;SDS011;3369;49.906;8.598;2022-12-16T05:14:16;10.30;;;7.20;;
6665;SDS011;3369;49.906;8.598;2022-12-16T05:17:00;15.73;;;7.77;;
6665;SDS011;3369;49.906;8.598;2022-12-16T05:19:44;16.30;;;7.80;;
6665;SDS011;3369;49.906;8.598;2022-12-16T05:22:28;13.23;;;7.83;;
6665;SDS011;3369;49.906;8.598;2022-12-16T05:25:12;12.07;;;7.77;;
6665;SDS011;3369;49.906;8.598;2022-12-16T05:27:56;12.60;;;7.53;;
6665;SDS011;3369;49.906;8.598;2022-12-16T05:30:40;11.90;;;7.17;;
6665;SDS011;3369;49.906;8.598;2022-12-16T05:33:24;14.67;;;7.40;;
6665;SDS011;3369;49.906;8.598;2022-12-16T05:36:08;12.70;;;7.07;;
6665;SDS011;3369;49.906;8.598;2022-12-16T05:39:03;11.80;;;8.27;;
6665;SDS011;3369;49.906;8.598;2022-12-16T05:41:47;14.10;;;8.40;;
6665;SDS011;3369;49.906;8.598;2022-12-16T05:44:32;13.67;;;7.90;;
6665;SDS011;3369;49.906;8.598;2022-12-16T05:47:16;12.47;;;7.70;;
6665;SDS011;3369;49.906;8.598;2022-12-16T05:50:00;10.73;;;7.70;;
6665;SDS011;3369;49.906;8.598;2022-12-16T05:52:50;14.53;;;8.73;;
6665;SDS011;3369;49.906;8.598;2022-12-16T05:55:36;12.27;;;6.53;;
6665;SDS011;3369;49.906;8.598;2022-12-16T05:58:21;11.53;;;7.87;;
6665;SDS011;3369;49.906;8.598;2022-12-16T06:01:05;13.03;;;8.43;;
6665;SDS011;3369;49.906;8.598;2022-12-16T06:03:49;11.73;;;7.00;;
6665;SDS011;3369;49.906;8.598;2022-12-16T06:06:34;12.30;;;7.60;;
6665;SDS011;3369;49.906;8.598;2022-12-16T06:09:19;11.20;;;7.40;;
6665;SDS011;3369;49.906;8.598;2022-12-16T06:12:03;12.63;;;7.37;;
6665;SDS011;3369;49.906;8.598;2022-12-16T06:14:47;13.50;;;7.97;;
6665;SDS011;3369;49.906;8.598;2022-12-16T06:17:32;12.23;;;8.63;;
6665;SDS011;3369;49.906;8.598;2022-12-16T06:20:16;10.33;;;7.50;;
6665;SDS011;3369;49.906;8.598;2022-12-16T06:23:00;15.03;;;7.80;;
6665;SDS011;3369;49.906;8.598;2022-12-16T06:25:44;13.97;;;8.53;;
6665;SDS011;3369;49.906;8.598;2022-12-16T06:28:28;14.23;;;8.82;;
6665;SDS011;3369;49.906;8.598;2022-12-16T06:31:12;12.77;;;8.40;;
6665;SDS011;3369;49.906;8.598;2022-12-16T06:33:56;13.77;;;8.07;;
6665;SDS011;3369;49.906;8.598;2022-12-16T06:36:40;10.80;;;7.40;;
6665;SDS011;3369;49.906;8.598;2022-12-16T06:39:24;15.63;;;9.23;;
6665;SDS011;3369;49.906;8.598;2022-12-16T06:42:08;17.30;;;10.70;;
6665;SDS011;3369;49.906;8.598;2022-12-16T06:44:52;18.00;;;10.57;;
6665;SDS011;3369;49.906;8.598;2022-12-16T06:47:41;17.27;;;10.33;;
6665;SDS011;3369;49.906;8.598;2022-12-16T06:50:26;20.53;;;10.53;;
6665;SDS011;3369;49.906;8.598;2022-12-16T06:53:11;15.97;;;11.00;;
6665;SDS011;3369;49.906;8.598;2022-12-16T06:55:55;15.87;;;9.57;;
6665;SDS011;3369;49.906;8.598;2022-12-16T06:58:39;21.57;;;10.70;;
6665;SDS011;3369;49.906;8.598;2022-12-16T07:01:23;15.73;;;9.17;;
6665;SDS011;3369;49.906;8.598;2022-12-16T07:04:07;24.57;;;10.30;;
6665;SDS011;3369;49.906;8.598;2022-12-16T07:06:51;16.93;;;9.47;;
6665;SDS011;3369;49.906;8.598;2022-12-16T07:09:35;15.43;;;9.10;;
6665;SDS011;3369;49.906;8.598;2022-12-16T07:12:19;17.27;;;9.47;;
6665;SDS011;3369;49.906;8.598;2022-12-16T07:15:03;14.27;;;9.40;;
6665;SDS011;3369;49.906;8.598;2022-12-16T07:17:47;18.20;;;9.93;;
6665;SDS011;3369;49.906;8.598;2022-12-16T07:20:31;20.43;;;10.80;;
6665;SDS011;3369;49.906;8.598;2022-12-16T07:23:15;17.50;;;9.60;;
6665;SDS011;3369;49.906;8.598;2022-12-16T07:25:59;17.60;;;9.93;;
6665;SDS011;3369;49.906;8.598;2022-12-16T07:28:43;16.80;;;10.10;;
6665;SDS011;3369;49.906;8.598;2022-12-16T07:31:47;13.23;;;8.67;;
6665;SDS011;3369;49.906;8.598;2022-12-16T07:34:31;16.30;;;9.30;;
6665;SDS011;3369;49.906;8.598;2022-12-16T07:37:15;20.97;;;10.70;;
6665;SDS011;3369;49.906;8.598;2022-12-16T07:39:59;15.80;;;9.17;;
6665;SDS011;3369;49.906;8.598;2022-12-16T07:42:46;17.90;;;9.77;;
6665;SDS011;3369;49.906;8.598;2022-12-16T07:45:31;15.77;;;9.17;;
6665;SDS011;3369;49.906;8.598;2022-12-16T07:48:15;17.67;;;8.53;;
6665;SDS011;3369;49.906;8.598;2022-12-16T07:50:59;15.80;;;9.63;;
6665;SDS011;3369;49.906;8.598;2022-12-16T07:53:43;17.10;;;9.73;;
6665;SDS011;3369;49.906;8.598;2022-12-16T07:56:27;17.60;;;9.30;;
6665;SDS011;3369;49.906;8.598;2022-12-16T07:59:11;18.73;;;10.07;;
6665;SDS011;3369;49.906;8.598;2022-12-16T08:01:55;14.93;;;9.37;;
6665;SDS011;3369;49.906;8.598;2022-12-16T08:04:39;18.30;;;9.67;;
6665;SDS011;3369;49.906;8.598;2022-12-16T08:07:23;14.60;;;9.50;;
6665;SDS011;3369;49.906;8.598;2022-12-16T08:10:07;15.20;;;8.83;;
6665;SDS011;3369;49.906;8.598;2022-12-16T08:12:57;15.10;;;8.63;;
6665;SDS011;3369;49.906;8.598;2022-12-16T08:15:45;13.17;;;8.10;;
6665;SDS011;3369;49.906;8.598;2022-12-16T08:18:29;14.33;;;8.80;;
6665;SDS011;3369;49.906;8.598;2022-12-16T08:21:13;15.33;;;8.37;;
6665;SDS011;3369;49.906;8.598;2022-12-16T08:23:58;13.87;;;8.83;;
6665;SDS011;3369;49.906;8.598;2022-12-16T08:26:42;17.20;;;9.60;;
6665;SDS011;3369;49.906;8.598;2022-12-16T08:29:26;21.53;;;10.13;;
6665;SDS011;3369;49.906;8.598;2022-12-16T08:32:10;16.83;;;10.87;;
6665;SDS011;3369;49.906;8.598;2022-12-16T08:34:55;18.00;;;10.40;;
6665;SDS011;3369;49.906;8.598;2022-12-16T08:37:39;15.73;;;9.80;;
6665;SDS011;3369;49.906;8.598;2022-12-16T08:40:23;17.63;;;10.03;;
6665;SDS011;3369;49.906;8.598;2022-12-16T08:43:08;18.53;;;10.07;;
6665;SDS011;3369;49.906;8.598;2022-12-16T08:45:52;17.87;;;9.47;;
6665;SDS011;3369;49.906;8.598;2022-12-16T08:48:37;14.07;;;9.73;;
6665;SDS011;3369;49.906;8.598;2022-12-16T08:51:21;18.77;;;9.57;;
6665;SDS011;3369;49.906;8.598;2022-12-16T08:54:05;16.30;;;8.93;;
6665;SDS011;3369;49.906;8.598;2022-12-16T08:56:49;16.87;;;9.80;;
6665;SDS011;3369;49.906;8.598;2022-12-16T08:59:34;15.93;;;9.13;;
6665;SDS011;3369;49.906;8.598;2022-12-16T09:02:20;16.17;;;9.10;;
6665;SDS011;3369;49.906;8.598;2022-12-16T09:05:04;15.10;;;9.00;;
6665;SDS011;3369;49.906;8.598;2022-12-16T09:07:48;16.73;;;8.60;;
6665;SDS011;3369;49.906;8.598;2022-12-16T09:10:32;17.17;;;9.30;;
6665;SDS011;3369;49.906;8.598;2022-12-16T09:13:16;14.37;;;9.13;;
6665;SDS011;3369;49.906;8.598;2022-12-16T09:16:01;15.83;;;9.90;;
6665;SDS011;3369;49.906;8.598;2022-12-16T09:19:02;15.83;;;9.20;;
6665;SDS011;3369;49.906;8.598;2022-12-16T09:21:46;16.77;;;9.77;;
6665;SDS011;3369;49.906;8.598;2022-12-16T09:24:30;16.87;;;9.87;;
6665;SDS011;3369;49.906;8.598;2022-12-16T09:27:14;15.97;;;10.73;;
6665;SDS011;3369;49.906;8.598;2022-12-16T09:29:58;14.27;;;9.30;;
6665;SDS011;3369;49.906;8.598;2022-12-16T09:32:43;14.67;;;8.33;;
6665;SDS011;3369;49.906;8.598;2022-12-16T09:35:27;16.50;;;9.63;;
6665;SDS011;3369;49.906;8.598;2022-12-16T09:38:11;14.00;;;9.57;;
6665;SDS011;3369;49.906;8.598;2022-12-16T09:40:56;15.60;;;8.73;;
6665;SDS011;3369;49.906;8.598;2022-12-16T09:44:02;15.03;;;9.20;;
6665;SDS011;3369;49.906;8.598;2022-12-16T09:50:29;14.73;;;9.60;;
6665;SDS011;3369;49.906;8.598;2022-12-16T09:53:18;13.87;;;8.70;;
6665;SDS011;3369;49.906;8.598;2022-12-16T09:56:06;16.30;;;9.73;;
6665;SDS011;3369;49.906;8.598;2022-12-16T09:59:01;16.07;;;9.53;;
6665;SDS011;3369;49.906;8.598;2022-12-16T10:01:49;14.27;;;9.60;;
6665;SDS011;3369;49.906;8.598;2022-12-16T10:04:34;15.77;;;10.57;;
6665;SDS011;3369;49.906;8.598;2022-12-16T10:07:21;15.87;;;9.97;;
6665;SDS011;3369;49.906;8.598;2022-12-16T10:10:21;15.57;;;10.20;;
6665;SDS011;3369;49.906;8.598;2022-12-16T10:13:30;13.73;;;8.43;;
6665;SDS011;3369;49.906;8.598;2022-12-16T10:16:52;13.07;;;8.83;;
6665;SDS011;3369;49.906;8.598;2022-12-16T10:20:03;12.13;;;8.77;;
6665;SDS011;3369;49.906;8.598;2022-12-16T10:26:22;12.10;;;8.40;;
6665;SDS011;3369;49.906;8.598;2022-12-16T10:29:20;14.17;;;8.63;;
6665;SDS011;3369;49.906;8.598;2022-12-16T10:32:24;13.73;;;8.20;;
6665;SDS011;3369;49.906;8.598;2022-12-16T10:35:25;12.67;;;8.23;;
6665;SDS011;3369;49.906;8.598;2022-12-16T10:39:16;14.60;;;8.10;;
6665;SDS011;3369;49.906;8.598;2022-12-16T10:41:31;9.73;;;7.07;;
6665;SDS011;3369;49.906;8.598;2022-12-16T10:47:24;9.67;;;7.10;;
6665;SDS011;3369;49.906;8.598;2022-12-16T10:50:12;13.23;;;7.57;;
6665;SDS011;3369;49.906;8.598;2022-12-16T10:52:58;9.20;;;6.57;;
6665;SDS011;3369;49.906;8.598;2022-12-16T10:58:55;8.93;;;6.37;;
6665;SDS011;3369;49.906;8.598;2022-12-16T11:01:54;10.17;;;6.60;;
6665;SDS011;3369;49.906;8.598;2022-12-16T11:04:41;11.17;;;7.03;;
6665;SDS011;3369;49.906;8.598;2022-12-16T11:10:22;10.70;;;6.67;;
6665;SDS011;3369;49.906;8.598;2022-12-16T11:13:24;8.47;;;6.80;;
6665;SDS011;3369;49.906;8.598;2022-12-16T11:19:00;7.97;;;5.93;;
6665;SDS011;3369;49.906;8.598;2022-12-16T11:21:45;8.13;;;6.13;;
6665;SDS011;3369;49.906;8.598;2022-12-16T11:24:30;11.13;;;6.73;;
6665;SDS011;3369;49.906;8.598;2022-12-16T11:27:20;9.80;;;7.40;;
6665;SDS011;3369;49.906;8.598;2022-12-16T11:32:56;8.53;;;6.57;;
6665;SDS011;3369;49.906;8.598;2022-12-16T11:35:43;11.13;;;6.83;;
6665;SDS011;3369;49.906;8.598;2022-12-16T11:38:35;8.50;;;6.80;;
6665;SDS011;3369;49.906;8.598;2022-12-16T11:41:28;10.77;;;7.00;;
6665;SDS011;3369;49.906;8.598;2022-12-16T11:44:40;8.67;;;6.67;;
6665;SDS011;3369;49.906;8.598;2022-12-16T11:50:17;7.90;;;6.93;;
6665;SDS011;3369;49.906;8.598;2022-12-16T11:53:02;8.10;;;6.33;;
6665;SDS011;3369;49.906;8.598;2022-12-16T11:55:49;8.37;;;5.93;;
6665;SDS011;3369;49.906;8.598;2022-12-16T11:58:42;8.23;;;5.97;;
6665;SDS011;3369;49.906;8.598;2022-12-16T12:01:42;9.80;;;6.03;;
6665;SDS011;3369;49.906;8.598;2022-12-16T12:04:34;10.97;;;8.23;;
6665;SDS011;3369;49.906;8.598;2022-12-16T12:10:21;8.00;;;6.10;;
6665;SDS011;3369;49.906;8.598;2022-12-16T12:16:34;8.27;;;5.93;;
6665;SDS011;3369;49.906;8.598;2022-12-16T12:19:58;10.57;;;6.10;;
6665;SDS011;3369;49.906;8.598;2022-12-16T12:22:50;9.33;;;6.07;;
6665;SDS011;3369;49.906;8.598;2022-12-16T12:37:18;10.03;;;6.17;;
6665;SDS011;3369;49.906;8.598;2022-12-16T12:43:11;8.33;;;5.37;;
6665;SDS011;3369;49.906;8.598;2022-12-16T12:46:09;7.17;;;5.83;;
6665;SDS011;3369;49.906;8.598;2022-12-16T12:52:35;8.90;;;5.97;;
6665;SDS011;3369;49.906;8.598;2022-12-16T12:55:44;10.73;;;6.50;;
6665;SDS011;3369;49.906;8.598;2022-12-16T12:58:48;9.03;;;5.87;;
6665;SDS011;3369;49.906;8.598;2022-12-16T13:01:36;8.60;;;6.43;;
6665;SDS011;3369;49.906;8.598;2022-12-16T13:04:24;9.20;;;6.30;;
6665;SDS011;3369;49.906;8.598;2022-12-16T13:07:12;8.43;;;6.47;;
6665;SDS011;3369;49.906;8.598;2022-12-16T13:16:54;9.00;;;6.47;;
6665;SDS011;3369;49.906;8.598;2022-12-16T13:22:29;12.67;;;6.37;;
6665;SDS011;3369;49.906;8.598;2022-12-16T13:25:33;7.67;;;6.30;;
6665;SDS011;3369;49.906;8.598;2022-12-16T13:28:27;9.57;;;6.37;;
6665;SDS011;3369;49.906;8.598;2022-12-16T13:31:17;9.23;;;6.40;;
6665;SDS011;3369;49.906;8.598;2022-12-16T13:34:26;10.37;;;7.10;;
6665;SDS011;3369;49.906;8.598;2022-12-16T13:37:17;9.27;;;6.30;;
6665;SDS011;3369;49.906;8.598;2022-12-16T13:42:59;8.03;;;6.17;;
6665;SDS011;3369;49.906;8.598;2022-12-16T13:46:27;10.23;;;6.97;;
6665;SDS011;3369;49.906;8.598;2022-12-16T13:49:21;10.23;;;7.20;;
6665;SDS011;3369;49.906;8.598;2022-12-16T13:52:18;12.27;;;7.07;;
6665;SDS011;3369;49.906;8.598;2022-12-16T13:55:17;8.73;;;6.80;;
6665;SDS011;3369;49.906;8.598;2022-12-16T13:58:10;9.13;;;6.40;;
6665;SDS011;3369;49.906;8.598;2022-12-16T14:01:12;11.83;;;6.73;;
6665;SDS011;3369;49.906;8.598;2022-12-16T14:04:00;8.93;;;6.80;;
6665;SDS011;3369;49.906;8.598;2022-12-16T14:06:45;7.80;;;5.93;;
6665;SDS011;3369;49.906;8.598;2022-12-16T14:09:34;9.10;;;6.67;;
6665;SDS011;3369;49.906;8.598;2022-12-16T14:22:48;7.20;;;5.67;;
6665;SDS011;3369;49.906;8.598;2022-12-16T14:25:34;7.93;;;6.47;;
6665;SDS011;3369;49.906;8.598;2022-12-16T14:28:24;9.93;;;6.30;;
6665;SDS011;3369;49.906;8.598;2022-12-16T14:31:23;8.73;;;6.00;;
6665;SDS011;3369;49.906;8.598;2022-12-16T14:55:37;6.47;;;4.97;;
6665;SDS011;3369;49.906;8.598;2022-12-16T14:58:22;8.73;;;5.53;;
6665;SDS011;3369;49.906;8.598;2022-12-16T15:03:56;5.77;;;4.60;;
6665;SDS011;3369;49.906;8.598;2022-12-16T15:06:42;6.57;;;5.30;;
6665;SDS011;3369;49.906;8.598;2022-12-16T15:12:14;7.93;;;5.60;;
6665;SDS011;3369;49.906;8.598;2022-12-16T15:15:03;6.57;;;4.87;;
6665;SDS011;3369;49.906;8.598;2022-12-16T15:17:51;8.43;;;5.83;;
6665;SDS011;3369;49.906;8.598;2022-12-16T15:23:35;7.77;;;5.43;;
6665;SDS011;3369;49.906;8.598;2022-12-16T15:26:24;9.60;;;5.63;;
6665;SDS011;3369;49.906;8.598;2022-12-16T15:29:30;8.63;;;5.87;;
6665;SDS011;3369;49.906;8.598;2022-12-16T15:35:22;6.33;;;4.97;;
6665;SDS011;3369;49.906;8.598;2022-12-16T15:38:11;6.63;;;5.23;;
6665;SDS011;3369;49.906;8.598;2022-12-16T15:40:55;6.83;;;4.87;;
6665;SDS011;3369;49.906;8.598;2022-12-16T15:43:39;7.97;;;5.50;;
6665;SDS011;3369;49.906;8.598;2022-12-16T15:46:25;7.93;;;5.27;;
6665;SDS011;3369;49.906;8.598;2022-12-16T15:55:30;7.40;;;5.20;;
6665;SDS011;3369;49.906;8.598;2022-12-16T16:01:17;8.97;;;5.63;;
6665;SDS011;3369;49.906;8.598;2022-12-16T16:07:23;8.77;;;5.53;;
6665;SDS011;3369;49.906;8.598;2022-12-16T16:10:15;7.47;;;5.47;;
6665;SDS011;3369;49.906;8.598;2022-12-16T16:13:04;6.67;;;4.93;;
6665;SDS011;3369;49.906;8.598;2022-12-16T16:15:48;7.13;;;4.87;;
6665;SDS011;3369;49.906;8.598;2022-12-16T16:18:33;6.63;;;5.40;;
6665;SDS011;3369;49.906;8.598;2022-12-16T16:21:17;7.50;;;5.63;;
6665;SDS011;3369;49.906;8.598;2022-12-16T16:24:01;8.70;;;6.00;;
6665;SDS011;3369;49.906;8.598;2022-12-16T16:26:46;8.93;;;5.50;;
6665;SDS011;3369;49.906;8.598;2022-12-16T16:29:30;9.13;;;5.80;;
6665;SDS011;3369;49.906;8.598;2022-12-16T16:32:14;8.67;;;5.80;;
6665;SDS011;3369;49.906;8.598;2022-12-16T16:34:58;7.53;;;5.50;;
6665;SDS011;3369;49.906;8.598;2022-12-16T16:37:42;8.07;;;5.73;;
6665;SDS011;3369;49.906;8.598;2022-12-16T16:40:30;6.87;;;5.50;;
6665;SDS011;3369;49.906;8.598;2022-12-16T16:43:16;6.30;;;5.10;;
6665;SDS011;3369;49.906;8.598;2022-12-16T16:46:01;9.43;;;5.90;;
6665;SDS011;3369;49.906;8.598;2022-12-16T16:48:50;8.30;;;5.40;;
6665;SDS011;3369;49.906;8.598;2022-12-16T16:51:34;7.13;;;5.37;;
6665;SDS011;3369;49.906;8.598;2022-12-16T16:54:18;8.13;;;5.77;;
6665;SDS011;3369;49.906;8.598;2022-12-16T16:57:02;9.80;;;6.40;;
6665;SDS011;3369;49.906;8.598;2022-12-16T16:59:46;9.07;;;6.33;;
6665;SDS011;3369;49.906;8.598;2022-12-16T17:02:30;13.83;;;8.00;;
6665;SDS011;3369;49.906;8.598;2022-12-16T17:05:14;13.10;;;8.57;;
6665;SDS011;3369;49.906;8.598;2022-12-16T17:07:58;15.13;;;8.70;;
6665;SDS011;3369;49.906;8.598;2022-12-16T17:10:42;12.33;;;8.00;;
6665;SDS011;3369;49.906;8.598;2022-12-16T17:13:26;10.40;;;6.90;;
6665;SDS011;3369;49.906;8.598;2022-12-16T17:16:11;13.03;;;7.67;;
6665;SDS011;3369;49.906;8.598;2022-12-16T17:18:56;10.70;;;6.97;;
6665;SDS011;3369;49.906;8.598;2022-12-16T17:21:40;9.63;;;6.87;;
6665;SDS011;3369;49.906;8.598;2022-12-16T17:24:25;8.77;;;6.27;;
6665;SDS011;3369;49.906;8.598;2022-12-16T17:27:15;9.13;;;6.40;;
6665;SDS011;3369;49.906;8.598;2022-12-16T17:30:02;8.87;;;6.50;;
6665;SDS011;3369;49.906;8.598;2022-12-16T17:32:49;9.00;;;6.60;;
6665;SDS011;3369;49.906;8.598;2022-12-16T17:35:34;8.73;;;6.63;;
6665;SDS011;3369;49.906;8.598;2022-12-16T17:38:17;8.23;;;5.80;;
6665;SDS011;3369;49.906;8.598;2022-12-16T17:41:02;7.70;;;6.30;;
6665;SDS011;3369;49.906;8.598;2022-12-16T17:43:45;9.53;;;6.07;;
6665;SDS011;3369;49.906;8.598;2022-12-16T17:46:30;9.40;;;6.53;;
6665;SDS011;3369;49.906;8.598;2022-12-16T17:49:14;9.37;;;6.03;;
6665;SDS011;3369;49.906;8.598;2022-12-16T17:51:58;8.77;;;6.37;;
6665;SDS011;3369;49.906;8.598;2022-12-16T17:54:42;10.53;;;6.23;;
6665;SDS011;3369;49.906;8.598;2022-12-16T17:57:26;9.53;;;6.53;;
6665;SDS011;3369;49.906;8.598;2022-12-16T18:00:10;10.50;;;6.70;;
6665;SDS011;3369;49.906;8.598;2022-12-16T18:02:54;8.77;;;6.27;;
6665;SDS011;3369;49.906;8.598;2022-12-16T18:05:38;10.20;;;6.60;;
6665;SDS011;3369;49.906;8.598;2022-12-16T18:08:22;9.50;;;6.63;;
6665;SDS011;3369;49.906;8.598;2022-12-16T18:11:06;9.00;;;6.67;;
6665;SDS011;3369;49.906;8.598;2022-12-16T18:13:51;9.30;;;7.13;;
6665;SDS011;3369;49.906;8.598;2022-12-16T18:16:35;6.83;;;5.53;;
6665;SDS011;3369;49.906;8.598;2022-12-16T18:19:19;9.83;;;6.77;;
6665;SDS011;3369;49.906;8.598;2022-12-16T18:22:03;8.57;;;6.23;;
6665;SDS011;3369;49.906;8.598;2022-12-16T18:24:47;9.50;;;6.67;;
6665;SDS011;3369;49.906;8.598;2022-12-16T18:27:32;9.27;;;6.50;;
6665;SDS011;3369;49.906;8.598;2022-12-16T18:30:18;9.27;;;6.83;;
6665;SDS011;3369;49.906;8.598;2022-12-16T18:33:02;9.83;;;6.63;;
6665;SDS011;3369;49.906;8.598;2022-12-16T18:35:46;9.73;;;6.53;;
6665;SDS011;3369;49.906;8.598;2022-12-16T18:38:30;10.30;;;6.37;;
6665;SDS011;3369;49.906;8.598;2022-12-16T18:41:15;8.20;;;6.10;;
6665;SDS011;3369;49.906;8.598;2022-12-16T18:44:01;10.77;;;7.57;;
6665;SDS011;3369;49.906;8.598;2022-12-16T18:46:46;9.87;;;6.77;;
6665;SDS011;3369;49.906;8.598;2022-12-16T18:49:31;9.00;;;7.23;;
6665;SDS011;3369;49.906;8.598;2022-12-16T18:52:15;9.80;;;7.10;;
6665;SDS011;3369;49.906;8.598;2022-12-16T18:55:00;9.80;;;6.80;;
6665;SDS011;3369;49.906;8.598;2022-12-16T18:57:44;10.57;;;7.53;;
6665;SDS011;3369;49.906;8.598;2022-12-16T19:00:28;9.50;;;6.50;;
6665;SDS011;3369;49.906;8.598;2022-12-16T19:03:12;11.37;;;7.00;;
6665;SDS011;3369;49.906;8.598;2022-12-16T19:05:56;10.63;;;6.87;;
6665;SDS011;3369;49.906;8.598;2022-12-16T19:08:40;10.27;;;7.10;;
6665;SDS011;3369;49.906;8.598;2022-12-16T19:11:25;10.03;;;7.03;;
6665;SDS011;3369;49.906;8.598;2022-12-16T19:14:09;9.37;;;6.77;;